Time;durP1;ratioP1;P1;durP2;ratioP2;P2;SDS_P1;SDS_P2;PMS_P1;PMS_P2;Temp;Humidity;BMP_temperature;BMP_pressure;BME280_temperature;BME280_humidity;BME280_pressure;Samples;Min_cycle;Max_cycle;Signal;HPM_P1;HPM_P2
2023/07/19 00:00:17;;;;;;;7.23;5.33;;;;;;;;;;4964952;28;20462;-90
2023/07/19 00:02:43;;;;;;;5.77;4.70;;;;;;;;;;4953532;28;20425;-90
2023/07/19 00:05:12;;;;;;;6.63;4.90;;;;;;;;;;4967079;28;20501;-90
2023/07/19 00:07:38;;;;;;;9.20;5.10;;;;;;;;;;4991403;28;20441;-90
2023/07/19 00:10:05;;;;;;;8.00;5.30;;;;;;;;;;4964544;28;20811;-90
2023/07/19 00:12:32;;;;;;;6.63;4.63;;;;;;;;;;4959545;28;20723;-90
2023/07/19 00:14:58;;;;;;;7.43;5.40;;;;;;;;;;4948113;28;20436;-89
2023/07/19 00:17:24;;;;;;;6.90;4.37;;;;;;;;;;4948777;28;20469;-90
2023/07/19 00:19:50;;;;;;;6.93;4.93;;;;;;;;;;4974421;28;20505;-90
2023/07/19 00:22:15;;;;;;;6.77;5.00;;;;;;;;;;4959041;28;20505;-90
2023/07/19 00:24:41;;;;;;;6.37;5.00;;;;;;;;;;4946316;28;20486;-90
2023/07/19 00:27:07;;;;;;;7.03;5.30;;;;;;;;;;4955738;28;20517;-90
2023/07/19 00:29:33;;;;;;;6.87;5.80;;;;;;;;;;4957025;28;20421;-90
2023/07/19 00:31:59;;;;;;;6.90;5.23;;;;;;;;;;4951956;28;20801;-89
2023/07/19 00:34:25;;;;;;;6.97;5.13;;;;;;;;;;4949059;28;20433;-90
2023/07/19 00:36:51;;;;;;;6.97;6.27;;;;;;;;;;4958855;28;20426;-90
2023/07/19 00:39:17;;;;;;;7.73;5.10;;;;;;;;;;4964480;28;20951;-90
2023/07/19 00:41:43;;;;;;;8.70;5.50;;;;;;;;;;4958157;29;20478;-90
2023/07/19 00:44:09;;;;;;;8.60;5.60;;;;;;;;;;4948516;28;20426;-90
2023/07/19 00:49:40;;;;;;;7.17;5.40;;;;;;;;;;4980517;28;20425;-90
2023/07/19 00:52:06;;;;;;;7.70;5.40;;;;;;;;;;4947091;28;20423;-90
2023/07/19 00:54:32;;;;;;;5.77;4.93;;;;;;;;;;4948173;28;20422;-89
2023/07/19 00:56:58;;;;;;;6.93;6.00;;;;;;;;;;4959551;28;20434;-90
2023/07/19 00:59:24;;;;;;;9.63;7.07;;;;;;;;;;4949149;28;20425;-90
2023/07/19 01:01:50;;;;;;;5.47;4.90;;;;;;;;;;4951724;28;20472;-90
2023/07/19 01:04:16;;;;;;;8.93;5.77;;;;;;;;;;4952373;28;20533;-90
2023/07/19 01:06:43;;;;;;;8.03;5.93;;;;;;;;;;4945364;28;20434;-90
2023/07/19 01:09:09;;;;;;;13.87;6.10;;;;;;;;;;4956499;28;20430;-90
2023/07/19 01:11:34;;;;;;;12.33;5.67;;;;;;;;;;4943429;29;20447;-90
2023/07/19 01:14:00;;;;;;;5.87;5.20;;;;;;;;;;4944337;29;20442;-91
2023/07/19 01:16:26;;;;;;;6.90;5.30;;;;;;;;;;4924899;28;20424;-90
2023/07/19 01:18:53;;;;;;;6.63;5.90;;;;;;;;;;4926946;28;20446;-90
2023/07/19 01:21:18;;;;;;;8.40;6.27;;;;;;;;;;4935546;28;20466;-91
2023/07/19 01:23:45;;;;;;;7.50;5.63;;;;;;;;;;4925684;29;20465;-90
2023/07/19 01:26:11;;;;;;;9.10;6.97;;;;;;;;;;4944098;28;20426;-91
2023/07/19 01:28:37;;;;;;;6.67;5.50;;;;;;;;;;4936650;29;20787;-91
2023/07/19 01:31:06;;;;;;;6.47;4.93;;;;;;;;;;4945224;29;20447;-90
2023/07/19 01:33:32;;;;;;;9.53;6.03;;;;;;;;;;4950525;29;20431;-90
2023/07/19 01:35:58;;;;;;;7.70;5.33;;;;;;;;;;4948899;28;20797;-90
2023/07/19 01:38:24;;;;;;;7.60;4.97;;;;;;;;;;4951103;28;20446;-90
2023/07/19 01:40:50;;;;;;;8.07;5.83;;;;;;;;;;4942364;29;20906;-89
2023/07/19 01:43:16;;;;;;;8.40;5.70;;;;;;;;;;4941059;28;20466;-88
2023/07/19 01:45:42;;;;;;;7.63;5.70;;;;;;;;;;4947066;28;20426;-90
2023/07/19 01:48:08;;;;;;;10.80;6.30;;;;;;;;;;4945506;28;20448;-90
2023/07/19 01:50:34;;;;;;;6.20;5.00;;;;;;;;;;4961759;28;20992;-90
2023/07/19 01:53:00;;;;;;;10.93;4.73;;;;;;;;;;4959165;28;20476;-90
2023/07/19 01:55:26;;;;;;;8.97;5.30;;;;;;;;;;4955530;28;20908;-90
2023/07/19 01:57:52;;;;;;;6.70;5.63;;;;;;;;;;4945533;28;20433;-90
2023/07/19 02:00:18;;;;;;;7.10;5.87;;;;;;;;;;4954825;28;20476;-90
2023/07/19 02:02:44;;;;;;;6.37;5.30;;;;;;;;;;4960636;28;20903;-90
2023/07/19 02:05:10;;;;;;;6.90;5.60;;;;;;;;;;4944914;28;20438;-91
2023/07/19 02:07:36;;;;;;;6.63;5.03;;;;;;;;;;4943791;28;20486;-90
2023/07/19 02:10:02;;;;;;;6.20;4.70;;;;;;;;;;4968902;28;20452;-89
2023/07/19 02:12:28;;;;;;;7.50;5.40;;;;;;;;;;4960597;28;20423;-90
2023/07/19 02:14:54;;;;;;;7.10;5.77;;;;;;;;;;4954903;28;20952;-90
2023/07/19 02:17:20;;;;;;;6.40;5.07;;;;;;;;;;4973410;28;20430;-90
2023/07/19 02:19:47;;;;;;;9.10;5.90;;;;;;;;;;4956366;28;20856;-90
2023/07/19 02:22:15;;;;;;;9.33;5.20;;;;;;;;;;4949883;28;20877;-90
2023/07/19 02:24:41;;;;;;;5.87;5.10;;;;;;;;;;4948624;29;20438;-89
2023/07/19 02:27:07;;;;;;;7.50;5.20;;;;;;;;;;4955866;29;20435;-90
2023/07/19 02:29:33;;;;;;;6.50;4.10;;;;;;;;;;4947666;29;20422;-90
2023/07/19 02:31:59;;;;;;;11.23;5.73;;;;;;;;;;4934646;28;20419;-90
2023/07/19 02:34:25;;;;;;;6.37;4.87;;;;;;;;;;4948027;29;20466;-90
2023/07/19 02:36:51;;;;;;;7.73;6.13;;;;;;;;;;4949604;28;20434;-90
2023/07/19 02:39:19;;;;;;;8.50;5.90;;;;;;;;;;4953568;28;20464;-91
2023/07/19 02:41:45;;;;;;;7.13;5.00;;;;;;;;;;4962944;28;21001;-90
2023/07/19 02:44:11;;;;;;;7.83;5.10;;;;;;;;;;4969307;28;20482;-90
2023/07/19 02:46:37;;;;;;;9.47;5.00;;;;;;;;;;4965357;28;20495;-89
2023/07/19 02:49:03;;;;;;;7.23;5.47;;;;;;;;;;4944409;28;20478;-90
2023/07/19 02:51:29;;;;;;;9.20;6.47;;;;;;;;;;4953013;28;20429;-91
2023/07/19 02:53:55;;;;;;;8.10;4.87;;;;;;;;;;4957678;28;20440;-90
2023/07/19 02:56:21;;;;;;;7.83;4.63;;;;;;;;;;4950792;28;20539;-90
2023/07/19 02:58:47;;;;;;;7.40;5.07;;;;;;;;;;4963411;28;20937;-90
2023/07/19 03:01:14;;;;;;;7.50;4.60;;;;;;;;;;4964393;28;20531;-89
2023/07/19 03:03:41;;;;;;;5.60;4.30;;;;;;;;;;4944026;28;20440;-90
2023/07/19 03:06:07;;;;;;;5.10;4.60;;;;;;;;;;4947268;28;20434;-89
2023/07/19 03:08:36;;;;;;;7.53;5.07;;;;;;;;;;4941869;28;20480;-91
2023/07/19 03:11:02;;;;;;;8.40;5.20;;;;;;;;;;4958853;28;20949;-89
2023/07/19 03:13:28;;;;;;;5.97;4.30;;;;;;;;;;4949885;28;20444;-90
2023/07/19 03:15:54;;;;;;;4.93;4.10;;;;;;;;;;4943861;28;20513;-90
2023/07/19 03:18:22;;;;;;;6.03;5.07;;;;;;;;;;4945054;28;20442;-91
2023/07/19 03:20:56;;;;;;;6.83;4.80;;;;;;;;;;4975150;28;20473;-90
2023/07/19 03:23:22;;;;;;;4.90;4.40;;;;;;;;;;4952544;28;21094;-90
2023/07/19 03:25:48;;;;;;;8.03;6.47;;;;;;;;;;4952854;28;20484;-90
2023/07/19 03:28:14;;;;;;;8.00;5.60;;;;;;;;;;4949374;28;20446;-91
2023/07/19 03:30:40;;;;;;;9.03;5.53;;;;;;;;;;4943347;28;20446;-90
2023/07/19 03:33:06;;;;;;;7.50;5.13;;;;;;;;;;4949065;28;20461;-90
2023/07/19 03:35:31;;;;;;;9.17;6.57;;;;;;;;;;4965662;28;20428;-91
2023/07/19 03:37:57;;;;;;;5.90;5.30;;;;;;;;;;4948416;28;20437;-91
2023/07/19 03:40:23;;;;;;;11.50;6.23;;;;;;;;;;4952518;28;20497;-92
2023/07/19 03:42:49;;;;;;;7.70;5.70;;;;;;;;;;4942454;28;20441;-90
2023/07/19 03:45:16;;;;;;;8.90;5.53;;;;;;;;;;4947368;28;20438;-89
2023/07/19 03:47:42;;;;;;;7.93;6.53;;;;;;;;;;4955998;28;20869;-91
2023/07/19 03:50:08;;;;;;;10.77;4.87;;;;;;;;;;4950659;28;20444;-91
2023/07/19 03:52:34;;;;;;;6.90;5.70;;;;;;;;;;4958144;28;20438;-92
2023/07/19 03:55:01;;;;;;;8.63;5.13;;;;;;;;;;4948798;28;20457;-90
2023/07/19 03:57:27;;;;;;;8.47;5.43;;;;;;;;;;4960008;28;20457;-91
2023/07/19 03:59:53;;;;;;;7.33;4.90;;;;;;;;;;4953554;28;20441;-90
2023/07/19 04:02:19;;;;;;;7.27;6.10;;;;;;;;;;4960364;28;20895;-91
2023/07/19 04:04:45;;;;;;;6.43;5.20;;;;;;;;;;4969965;28;20437;-91
2023/07/19 04:07:11;;;;;;;8.87;5.17;;;;;;;;;;4951365;28;21029;-92
2023/07/19 04:09:38;;;;;;;5.93;5.17;;;;;;;;;;4968315;28;20496;-91
2023/07/19 04:12:05;;;;;;;8.00;6.33;;;;;;;;;;4955508;28;20449;-90
2023/07/19 04:14:31;;;;;;;9.63;5.40;;;;;;;;;;4963398;28;20536;-90
2023/07/19 04:16:57;;;;;;;6.10;4.90;;;;;;;;;;4952763;28;20858;-92
2023/07/19 04:19:23;;;;;;;5.90;5.30;;;;;;;;;;4946567;28;20429;-90
2023/07/19 04:21:49;;;;;;;6.77;5.67;;;;;;;;;;4944185;28;20461;-90
2023/07/19 04:24:14;;;;;;;8.00;5.53;;;;;;;;;;4935766;28;20458;-91
2023/07/19 04:26:40;;;;;;;9.57;6.07;;;;;;;;;;4956840;28;20505;-90
2023/07/19 04:29:06;;;;;;;7.53;5.80;;;;;;;;;;4955644;28;20485;-91
2023/07/19 04:31:32;;;;;;;7.03;5.03;;;;;;;;;;4960712;28;20441;-91
2023/07/19 04:33:58;;;;;;;8.77;5.80;;;;;;;;;;4956942;28;20445;-90
2023/07/19 04:36:24;;;;;;;6.77;5.93;;;;;;;;;;4950700;28;20430;-91
2023/07/19 04:38:50;;;;;;;7.43;4.87;;;;;;;;;;4954023;28;20454;-93
2023/07/19 04:41:19;;;;;;;6.97;4.93;;;;;;;;;;4953621;28;20517;-94
2023/07/19 04:43:46;;;;;;;6.67;5.30;;;;;;;;;;4969532;28;20446;-93
2023/07/19 04:46:12;;;;;;;9.13;4.90;;;;;;;;;;4966712;28;21167;-91
2023/07/19 04:48:39;;;;;;;7.87;5.20;;;;;;;;;;4968212;28;20470;-89
2023/07/19 04:51:07;;;;;;;5.87;5.10;;;;;;;;;;4953320;28;20430;-91
2023/07/19 04:53:33;;;;;;;8.13;5.10;;;;;;;;;;4977169;28;20443;-89
2023/07/19 04:55:59;;;;;;;6.17;5.13;;;;;;;;;;4968526;28;20437;-91
2023/07/19 04:58:25;;;;;;;6.97;5.10;;;;;;;;;;4955331;28;20430;-90
2023/07/19 05:00:51;;;;;;;7.33;4.83;;;;;;;;;;4947791;29;20979;-90
2023/07/19 05:03:18;;;;;;;6.43;5.70;;;;;;;;;;4952219;28;20454;-90
2023/07/19 05:05:44;;;;;;;6.67;5.50;;;;;;;;;;4959831;28;20426;-90
2023/07/19 05:08:10;;;;;;;7.47;5.40;;;;;;;;;;4974711;28;20440;-92
2023/07/19 05:10:37;;;;;;;10.90;4.80;;;;;;;;;;4944305;29;20431;-91
2023/07/19 05:13:04;;;;;;;7.00;5.20;;;;;;;;;;4944588;29;20489;-91
2023/07/19 05:15:30;;;;;;;7.83;5.57;;;;;;;;;;4946981;28;20448;-92
2023/07/19 05:17:56;;;;;;;7.23;5.30;;;;;;;;;;4959760;28;20426;-92
2023/07/19 05:20:23;;;;;;;6.50;4.87;;;;;;;;;;4954507;28;20484;-91
2023/07/19 05:22:49;;;;;;;13.03;6.30;;;;;;;;;;4950889;28;20460;-89
2023/07/19 05:25:15;;;;;;;6.70;4.90;;;;;;;;;;4948841;28;20468;-90
2023/07/19 05:27:41;;;;;;;5.13;4.00;;;;;;;;;;4946709;28;20442;-91
2023/07/19 05:30:10;;;;;;;6.60;4.60;;;;;;;;;;4943278;28;20442;-89
2023/07/19 05:32:36;;;;;;;8.53;4.70;;;;;;;;;;4958924;28;20449;-90
2023/07/19 05:35:02;;;;;;;6.77;4.50;;;;;;;;;;4967200;28;20430;-90
2023/07/19 05:37:28;;;;;;;5.83;3.93;;;;;;;;;;4948472;28;20547;-90
2023/07/19 05:39:55;;;;;;;5.33;4.63;;;;;;;;;;4948171;28;20450;-90
2023/07/19 05:42:21;;;;;;;5.00;4.33;;;;;;;;;;4947414;28;20512;-91
2023/07/19 05:44:47;;;;;;;7.87;4.40;;;;;;;;;;4945702;28;20426;-90
2023/07/19 05:47:13;;;;;;;5.90;4.37;;;;;;;;;;4947122;28;20422;-90
2023/07/19 05:49:40;;;;;;;6.30;4.63;;;;;;;;;;4946308;28;20430;-90
2023/07/19 05:52:06;;;;;;;9.03;4.70;;;;;;;;;;4952782;28;20465;-94
2023/07/19 05:54:33;;;;;;;5.07;4.20;;;;;;;;;;4951686;28;20505;-92
2023/07/19 05:56:59;;;;;;;7.10;4.50;;;;;;;;;;4954854;28;20449;-95
2023/07/19 05:59:25;;;;;;;6.27;3.77;;;;;;;;;;4953109;28;20434;-94
2023/07/19 06:01:51;;;;;;;7.70;3.60;;;;;;;;;;4951662;28;20794;-92
2023/07/19 06:04:17;;;;;;;5.43;3.80;;;;;;;;;;4944170;28;20440;-94
2023/07/19 06:06:44;;;;;;;5.00;3.90;;;;;;;;;;4953808;28;20434;-90
2023/07/19 06:09:10;;;;;;;5.63;4.00;;;;;;;;;;4952103;29;20860;-90
2023/07/19 06:11:36;;;;;;;5.77;4.33;;;;;;;;;;4951584;28;20445;-90
2023/07/19 06:14:02;;;;;;;4.43;3.87;;;;;;;;;;4951471;28;20422;-90
2023/07/19 06:16:28;;;;;;;4.63;3.80;;;;;;;;;;4949136;28;20422;-91
2023/07/19 06:18:54;;;;;;;7.70;3.80;;;;;;;;;;4949290;28;20431;-91
2023/07/19 06:21:20;;;;;;;7.63;4.57;;;;;;;;;;4956899;28;21046;-91
2023/07/19 06:23:46;;;;;;;4.80;4.13;;;;;;;;;;4951210;28;20521;-92
2023/07/19 06:26:13;;;;;;;5.27;4.17;;;;;;;;;;4953489;28;20449;-93
2023/07/19 06:28:39;;;;;;;4.37;3.37;;;;;;;;;;4948847;28;20465;-91
2023/07/19 06:31:05;;;;;;;5.80;4.13;;;;;;;;;;4954469;28;20438;-92
2023/07/19 06:33:31;;;;;;;6.90;4.17;;;;;;;;;;4955484;28;20464;-93
2023/07/19 06:35:57;;;;;;;8.97;4.13;;;;;;;;;;4956540;28;20434;-93
2023/07/19 06:38:24;;;;;;;9.10;3.70;;;;;;;;;;4962244;28;20452;-93
2023/07/19 06:40:50;;;;;;;8.47;4.80;;;;;;;;;;4947831;28;20541;-93
2023/07/19 06:43:16;;;;;;;6.20;4.00;;;;;;;;;;4956026;28;20454;-92
2023/07/19 06:45:42;;;;;;;7.63;3.23;;;;;;;;;;4963685;28;20426;-93
2023/07/19 06:48:11;;;;;;;6.30;4.90;;;;;;;;;;4963372;28;20425;-93
2023/07/19 06:50:43;;;;;;;8.27;4.47;;;;;;;;;;4953870;28;20441;-94
2023/07/19 06:53:09;;;;;;;5.57;3.87;;;;;;;;;;4936018;29;20446;-94
2023/07/19 06:55:36;;;;;;;5.97;4.20;;;;;;;;;;4947295;28;20663;-92
2023/07/19 06:58:03;;;;;;;4.37;3.80;;;;;;;;;;4931365;29;20507;-93
2023/07/19 07:00:29;;;;;;;5.23;3.83;;;;;;;;;;4919408;29;20520;-94
2023/07/19 07:02:55;;;;;;;5.60;3.40;;;;;;;;;;4932277;29;20439;-94
2023/07/19 07:05:21;;;;;;;6.17;3.97;;;;;;;;;;4949551;29;20491;-93
2023/07/19 07:07:47;;;;;;;5.70;3.63;;;;;;;;;;4948991;29;20438;-93
2023/07/19 07:10:13;;;;;;;4.00;3.10;;;;;;;;;;4943955;29;20412;-92
2023/07/19 07:12:39;;;;;;;6.60;3.60;;;;;;;;;;4919411;29;20444;-93
2023/07/19 07:15:05;;;;;;;5.73;3.40;;;;;;;;;;4914015;29;20412;-93
2023/07/19 07:17:31;;;;;;;5.17;3.10;;;;;;;;;;4906109;29;20479;-93
2023/07/19 07:19:57;;;;;;;4.57;3.43;;;;;;;;;;4910025;29;20476;-92
2023/07/19 07:22:23;;;;;;;5.83;2.63;;;;;;;;;;4941702;29;20434;-92
2023/07/19 07:24:49;;;;;;;4.10;3.27;;;;;;;;;;4964829;28;20429;-93
2023/07/19 07:27:15;;;;;;;4.10;3.27;;;;;;;;;;4953442;28;20426;-93
2023/07/19 07:29:42;;;;;;;5.97;4.37;;;;;;;;;;4948722;29;20435;-93
2023/07/19 07:32:10;;;;;;;6.43;3.43;;;;;;;;;;4952937;28;20508;-91
2023/07/19 07:34:37;;;;;;;3.90;2.50;;;;;;;;;;4951845;28;20532;-91
2023/07/19 07:37:08;;;;;;;4.27;2.93;;;;;;;;;;4994215;28;20898;-92
2023/07/19 07:39:35;;;;;;;4.97;3.20;;;;;;;;;;4966471;28;20945;-90
2023/07/19 07:42:01;;;;;;;6.43;2.53;;;;;;;;;;4949050;28;20472;-92
2023/07/19 07:44:27;;;;;;;3.97;2.53;;;;;;;;;;4984605;28;20418;-92
2023/07/19 07:46:53;;;;;;;5.53;2.53;;;;;;;;;;4953696;28;20427;-91
2023/07/19 07:49:19;;;;;;;3.57;2.10;;;;;;;;;;4953526;28;20415;-91
2023/07/19 07:51:45;;;;;;;4.43;1.90;;;;;;;;;;4976814;28;20449;-90
2023/07/19 07:54:11;;;;;;;3.87;2.33;;;;;;;;;;5009588;28;20890;-90
2023/07/19 07:56:37;;;;;;;7.53;1.90;;;;;;;;;;4951958;28;20442;-91
2023/07/19 07:59:03;;;;;;;4.30;1.93;;;;;;;;;;4953663;28;20411;-93
2023/07/19 08:01:29;;;;;;;4.67;2.60;;;;;;;;;;4952726;29;20458;-92
2023/07/19 08:03:56;;;;;;;3.03;1.87;;;;;;;;;;4955221;28;20549;-93
2023/07/19 08:06:22;;;;;;;3.20;2.20;;;;;;;;;;4980793;28;20461;-92
2023/07/19 08:08:48;;;;;;;4.30;2.20;;;;;;;;;;4949675;28;20934;-90
2023/07/19 08:11:14;;;;;;;4.90;2.37;;;;;;;;;;4947260;28;20434;-90
2023/07/19 08:13:40;;;;;;;3.17;2.20;;;;;;;;;;4947712;29;20443;-90
2023/07/19 08:16:09;;;;;;;3.10;2.10;;;;;;;;;;4930161;29;20888;-88
2023/07/19 08:18:35;;;;;;;4.30;2.43;;;;;;;;;;4928991;29;20447;-88
2023/07/19 08:21:02;;;;;;;6.63;2.30;;;;;;;;;;4931360;29;20467;-89
2023/07/19 08:23:29;;;;;;;4.57;1.93;;;;;;;;;;4929701;29;20802;-90
2023/07/19 08:25:56;;;;;;;7.90;2.23;;;;;;;;;;4930812;29;20466;-90
2023/07/19 08:28:24;;;;;;;4.20;1.90;;;;;;;;;;4932508;29;20422;-90
2023/07/19 08:30:50;;;;;;;2.83;2.20;;;;;;;;;;4927997;29;20432;-89
2023/07/19 08:33:16;;;;;;;5.53;1.93;;;;;;;;;;4947931;29;20423;-87
2023/07/19 08:35:42;;;;;;;3.77;1.83;;;;;;;;;;4960899;29;20431;-89
2023/07/19 08:38:08;;;;;;;3.23;2.07;;;;;;;;;;4945761;28;20546;-89
2023/07/19 08:40:35;;;;;;;2.30;1.33;;;;;;;;;;4937188;28;20478;-89
2023/07/19 08:43:01;;;;;;;2.33;1.53;;;;;;;;;;4946558;28;20492;-90
2023/07/19 08:45:27;;;;;;;3.00;1.83;;;;;;;;;;4950931;28;20433;-92
2023/07/19 08:47:53;;;;;;;3.27;1.77;;;;;;;;;;4984063;28;20433;-92
2023/07/19 09:16:16;;;;;;;3.10;1.67;;;;;;;;;;5000232;28;20555;-90
2023/07/19 09:18:42;;;;;;;2.33;1.73;;;;;;;;;;4968054;28;20441;-91
2023/07/19 09:21:08;;;;;;;2.83;1.60;;;;;;;;;;4966441;28;21044;-91
2023/07/19 09:23:37;;;;;;;3.27;1.83;;;;;;;;;;4966834;28;20421;-88
2023/07/19 09:26:06;;;;;;;2.90;1.93;;;;;;;;;;4968093;28;20455;-89
2023/07/19 09:28:35;;;;;;;2.83;1.77;;;;;;;;;;4967406;28;20424;-90
2023/07/19 09:31:01;;;;;;;5.07;2.10;;;;;;;;;;4966149;28;20488;-89
2023/07/19 09:33:27;;;;;;;3.10;2.13;;;;;;;;;;4964860;28;20417;-90
2023/07/19 09:35:54;;;;;;;10.90;2.10;;;;;;;;;;4970715;28;20429;-89
2023/07/19 09:38:21;;;;;;;2.30;1.63;;;;;;;;;;4951471;28;20933;-90
2023/07/19 09:40:49;;;;;;;2.80;2.10;;;;;;;;;;4950760;28;20466;-89
2023/07/19 09:43:15;;;;;;;2.30;1.57;;;;;;;;;;4958805;28;20425;-89
2023/07/19 09:45:41;;;;;;;4.20;1.87;;;;;;;;;;4979138;28;20439;-89
2023/07/19 09:48:09;;;;;;;4.77;2.10;;;;;;;;;;4975287;28;20940;-91
2023/07/19 09:50:36;;;;;;;2.63;1.60;;;;;;;;;;4976189;28;20802;-90
2023/07/19 09:53:02;;;;;;;4.63;2.20;;;;;;;;;;4991859;28;20450;-92
2023/07/19 09:55:28;;;;;;;8.33;1.77;;;;;;;;;;4970566;28;20429;-91
2023/07/19 09:57:54;;;;;;;5.07;2.10;;;;;;;;;;4971932;28;20449;-91
2023/07/19 10:00:20;;;;;;;3.40;1.87;;;;;;;;;;4971857;28;20452;-90
2023/07/19 10:02:46;;;;;;;8.43;2.10;;;;;;;;;;4971090;28;20417;-91
2023/07/19 10:05:12;;;;;;;9.73;2.47;;;;;;;;;;4970258;28;20427;-90
2023/07/19 10:07:38;;;;;;;5.30;2.33;;;;;;;;;;4974194;28;20409;-91
2023/07/19 10:10:04;;;;;;;4.07;2.33;;;;;;;;;;4969830;28;20420;-91
2023/07/19 10:12:31;;;;;;;3.30;1.80;;;;;;;;;;4969091;28;20438;-93
2023/07/19 10:15:04;;;;;;;2.93;1.93;;;;;;;;;;4971064;28;20449;-90
2023/07/19 10:17:30;;;;;;;2.60;1.90;;;;;;;;;;4967140;28;20417;-90
2023/07/19 10:20:15;;;;;;;3.77;2.00;;;;;;;;;;4967953;28;20434;-90
2023/07/19 10:22:47;;;;;;;3.07;2.40;;;;;;;;;;4967494;28;20429;-91
2023/07/19 10:25:27;;;;;;;3.83;2.10;;;;;;;;;;4983006;28;20421;-91
2023/07/19 10:28:00;;;;;;;7.10;2.17;;;;;;;;;;4986058;28;20444;-91
2023/07/19 10:30:45;;;;;;;4.47;2.07;;;;;;;;;;4966941;28;20445;-89
2023/07/19 10:33:15;;;;;;;4.00;1.87;;;;;;;;;;4985965;28;20409;-90
2023/07/19 10:35:41;;;;;;;3.50;1.93;;;;;;;;;;4969616;28;20483;-91
2023/07/19 10:38:17;;;;;;;6.03;2.20;;;;;;;;;;4991838;28;20420;-92
2023/07/19 10:40:45;;;;;;;4.67;2.03;;;;;;;;;;4972330;28;20440;-91
2023/07/19 10:43:11;;;;;;;3.13;2.40;;;;;;;;;;4974101;28;20455;-91
2023/07/19 10:45:40;;;;;;;4.20;2.20;;;;;;;;;;4967448;28;20433;-90
2023/07/19 10:48:06;;;;;;;5.97;1.70;;;;;;;;;;4972527;28;20437;-92
2023/07/19 10:50:32;;;;;;;6.60;2.40;;;;;;;;;;4973987;28;20428;-92
2023/07/19 10:52:58;;;;;;;8.17;2.67;;;;;;;;;;4970048;28;20540;-91
2023/07/19 10:55:24;;;;;;;6.13;1.80;;;;;;;;;;4971446;28;20437;-92
2023/07/19 10:57:50;;;;;;;5.13;2.20;;;;;;;;;;4973500;28;20441;-92
2023/07/19 11:00:16;;;;;;;2.70;2.40;;;;;;;;;;4973629;28;20413;-92
2023/07/19 11:02:42;;;;;;;3.30;2.07;;;;;;;;;;4974859;28;20485;-91
2023/07/19 11:05:09;;;;;;;5.10;2.33;;;;;;;;;;4977115;28;20428;-92
2023/07/19 11:07:35;;;;;;;4.50;2.40;;;;;;;;;;4974748;28;20417;-93
2023/07/19 11:10:02;;;;;;;3.40;2.23;;;;;;;;;;4986971;28;20413;-91
2023/07/19 11:12:29;;;;;;;3.30;2.40;;;;;;;;;;4989611;28;20416;-92
2023/07/19 11:15:00;;;;;;;5.53;2.40;;;;;;;;;;4990872;28;20457;-92
2023/07/19 11:17:29;;;;;;;3.63;3.30;;;;;;;;;;4974927;28;20439;-94
2023/07/19 11:19:55;;;;;;;3.93;2.60;;;;;;;;;;4972718;28;20440;-92
2023/07/19 11:22:24;;;;;;;7.03;2.30;;;;;;;;;;4973202;28;20461;-92
2023/07/19 11:24:51;;;;;;;6.63;2.63;;;;;;;;;;4976776;28;20420;-93
2023/07/19 11:27:17;;;;;;;3.90;2.27;;;;;;;;;;4969113;28;20421;-93
2023/07/19 11:29:43;;;;;;;9.10;2.20;;;;;;;;;;4972755;28;20413;-92
2023/07/19 11:32:18;;;;;;;3.47;2.50;;;;;;;;;;4989906;28;20398;-93
2023/07/19 11:34:45;;;;;;;5.03;2.23;;;;;;;;;;4976766;28;20432;-92
2023/07/19 11:37:18;;;;;;;2.70;2.00;;;;;;;;;;4976753;28;20456;-92
2023/07/19 11:39:44;;;;;;;4.40;2.20;;;;;;;;;;4966723;28;20457;-93
2023/07/19 11:42:10;;;;;;;5.67;2.43;;;;;;;;;;4973277;28;20448;-90
2023/07/19 11:44:43;;;;;;;5.50;2.47;;;;;;;;;;4976220;28;20443;-92
2023/07/19 11:47:09;;;;;;;3.30;2.53;;;;;;;;;;4991545;28;20995;-92
2023/07/19 11:49:35;;;;;;;4.10;2.50;;;;;;;;;;4973924;28;20421;-91
2023/07/19 11:52:01;;;;;;;4.57;2.63;;;;;;;;;;4974249;28;20469;-92
2023/07/19 11:54:28;;;;;;;5.53;2.60;;;;;;;;;;4975668;28;20417;-92
2023/07/19 11:56:54;;;;;;;3.80;2.20;;;;;;;;;;4999721;28;20457;-92
2023/07/19 11:59:20;;;;;;;4.67;2.63;;;;;;;;;;4975482;28;20493;-92
2023/07/19 12:01:46;;;;;;;7.17;2.17;;;;;;;;;;4991508;28;20445;-92
2023/07/19 12:04:12;;;;;;;5.87;2.77;;;;;;;;;;4977316;28;20436;-92
2023/07/19 12:06:38;;;;;;;3.73;2.40;;;;;;;;;;4980055;28;20432;-92
2023/07/19 12:09:04;;;;;;;4.43;2.53;;;;;;;;;;4977383;28;20441;-91
2023/07/19 12:11:30;;;;;;;6.00;2.70;;;;;;;;;;4964290;28;20444;-92
2023/07/19 12:13:58;;;;;;;6.10;2.80;;;;;;;;;;4973221;28;20448;-92
2023/07/19 12:16:24;;;;;;;4.47;2.50;;;;;;;;;;4977189;28;20476;-90
2023/07/19 12:18:50;;;;;;;6.53;2.30;;;;;;;;;;4971823;28;20442;-91
2023/07/19 12:21:16;;;;;;;5.03;2.37;;;;;;;;;;4971622;28;20202;-92
2023/07/19 12:23:42;;;;;;;5.33;2.73;;;;;;;;;;4967706;28;20432;-93
2023/07/19 12:26:08;;;;;;;5.93;3.03;;;;;;;;;;4971962;28;20433;-91
2023/07/19 12:28:34;;;;;;;3.83;2.47;;;;;;;;;;4971148;28;20449;-91
2023/07/19 12:31:00;;;;;;;8.07;3.40;;;;;;;;;;4972316;28;20463;-92
2023/07/19 12:33:26;;;;;;;4.73;2.50;;;;;;;;;;4969611;28;20430;-92
2023/07/19 12:35:53;;;;;;;7.37;2.70;;;;;;;;;;4970617;28;20426;-93
2023/07/19 12:38:19;;;;;;;6.93;3.30;;;;;;;;;;4972420;28;20425;-92
2023/07/19 12:40:45;;;;;;;4.03;3.17;;;;;;;;;;4972306;28;20465;-92
2023/07/19 12:43:12;;;;;;;3.97;2.57;;;;;;;;;;4969654;28;20456;-92
2023/07/19 12:45:38;;;;;;;6.73;2.37;;;;;;;;;;4972222;28;20425;-92
2023/07/19 12:48:04;;;;;;;3.57;2.63;;;;;;;;;;4971166;28;20417;-92
2023/07/19 12:50:31;;;;;;;4.97;2.70;;;;;;;;;;4973494;28;20448;-92
2023/07/19 12:52:57;;;;;;;3.40;2.90;;;;;;;;;;4971493;28;20416;-92
2023/07/19 12:55:26;;;;;;;4.93;3.47;;;;;;;;;;4967196;28;20429;-93
2023/07/19 12:57:53;;;;;;;4.10;2.77;;;;;;;;;;4990751;28;20442;-93
2023/07/19 13:00:20;;;;;;;5.93;3.60;;;;;;;;;;4954321;28;20514;-91
2023/07/19 13:02:46;;;;;;;6.57;3.43;;;;;;;;;;4940976;29;20442;-92
2023/07/19 13:05:12;;;;;;;5.80;3.50;;;;;;;;;;4937945;28;20443;-90
2023/07/19 13:07:38;;;;;;;4.07;3.00;;;;;;;;;;4953108;28;20834;-94
2023/07/19 13:10:06;;;;;;;4.70;3.60;;;;;;;;;;4949624;28;20478;-93
2023/07/19 13:12:32;;;;;;;3.73;3.33;;;;;;;;;;4915639;29;20861;-92
2023/07/19 13:15:13;;;;;;;4.90;3.37;;;;;;;;;;4893487;29;20449;-95
2023/07/19 13:17:41;;;;;;;7.40;3.33;;;;;;;;;;4880064;29;20444;-93
2023/07/19 13:20:16;;;;;;;3.77;3.20;;;;;;;;;;4903562;29;20467;-94
2023/07/19 13:22:42;;;;;;;4.40;3.70;;;;;;;;;;4903918;29;20497;-91
2023/07/19 13:25:08;;;;;;;4.13;3.50;;;;;;;;;;4892647;29;20477;-91
2023/07/19 13:27:35;;;;;;;5.13;3.57;;;;;;;;;;4902121;29;20448;-93
2023/07/19 13:30:06;;;;;;;5.53;4.43;;;;;;;;;;4902958;29;20433;-93
2023/07/19 13:32:32;;;;;;;4.70;3.67;;;;;;;;;;4910508;29;20451;-92
2023/07/19 13:34:58;;;;;;;8.30;3.67;;;;;;;;;;4911377;29;20440;-91
2023/07/19 13:37:24;;;;;;;5.97;4.90;;;;;;;;;;4891480;29;20441;-93
2023/07/19 13:39:53;;;;;;;4.77;3.70;;;;;;;;;;4889925;29;20438;-93
2023/07/19 13:42:19;;;;;;;5.37;4.00;;;;;;;;;;4902439;29;20513;-90
2023/07/19 13:44:45;;;;;;;4.90;3.90;;;;;;;;;;4945463;29;20447;-92
2023/07/19 13:47:12;;;;;;;5.40;3.80;;;;;;;;;;4945515;29;20435;-93
2023/07/19 13:49:38;;;;;;;4.50;3.57;;;;;;;;;;4951818;29;20430;-95
2023/07/19 13:52:04;;;;;;;5.17;3.60;;;;;;;;;;4935306;29;20558;-89
2023/07/19 13:54:30;;;;;;;4.07;3.50;;;;;;;;;;4950145;29;20419;-95
2023/07/19 13:56:57;;;;;;;5.37;3.23;;;;;;;;;;4952898;29;20426;-95
2023/07/19 13:59:23;;;;;;;5.17;3.40;;;;;;;;;;4950094;29;20443;-93
2023/07/19 14:01:49;;;;;;;5.63;4.50;;;;;;;;;;4949872;29;20499;-94
2023/07/19 14:04:15;;;;;;;4.63;3.87;;;;;;;;;;4952406;29;20447;-90
2023/07/19 14:06:41;;;;;;;6.03;4.27;;;;;;;;;;4931976;29;20447;-94
2023/07/19 14:09:07;;;;;;;6.57;4.10;;;;;;;;;;4957767;28;20591;-87
2023/07/19 14:11:33;;;;;;;4.77;3.80;;;;;;;;;;4927579;29;20442;-93
2023/07/19 14:14:00;;;;;;;5.73;3.43;;;;;;;;;;4927642;29;20494;-93
2023/07/19 14:16:26;;;;;;;7.20;3.43;;;;;;;;;;4931104;29;20527;-93
2023/07/19 14:18:52;;;;;;;5.90;3.67;;;;;;;;;;4951629;29;20427;-91
2023/07/19 14:21:19;;;;;;;4.57;3.80;;;;;;;;;;4945687;29;20290;-92
2023/07/19 14:23:45;;;;;;;4.80;3.10;;;;;;;;;;4965868;28;20440;-91
2023/07/19 14:26:11;;;;;;;3.60;2.90;;;;;;;;;;4956387;29;20429;-88
2023/07/19 14:28:37;;;;;;;6.97;2.77;;;;;;;;;;4934854;29;20411;-91
2023/07/19 14:31:03;;;;;;;3.37;2.93;;;;;;;;;;4941622;29;20439;-88
2023/07/19 14:33:29;;;;;;;4.60;3.10;;;;;;;;;;4946305;29;20473;-88
2023/07/19 14:35:55;;;;;;;5.00;3.27;;;;;;;;;;4920766;29;20439;-88
2023/07/19 14:38:25;;;;;;;4.00;3.10;;;;;;;;;;4930029;29;20450;-88
2023/07/19 14:40:51;;;;;;;11.87;3.43;;;;;;;;;;4923083;29;21057;-89
2023/07/19 14:43:17;;;;;;;4.57;2.97;;;;;;;;;;4940009;29;21002;-88
2023/07/19 14:45:43;;;;;;;6.70;3.40;;;;;;;;;;4939857;29;20444;-87
2023/07/19 14:48:09;;;;;;;6.90;3.40;;;;;;;;;;4947537;28;20445;-88
2023/07/19 14:50:35;;;;;;;6.77;3.57;;;;;;;;;;4953232;28;20443;-90
2023/07/19 14:53:01;;;;;;;6.57;3.37;;;;;;;;;;4958915;28;20443;-89
2023/07/19 14:55:27;;;;;;;5.50;2.93;;;;;;;;;;4927580;28;20516;-89
2023/07/19 14:57:53;;;;;;;7.13;3.67;;;;;;;;;;4966505;28;20452;-89
2023/07/19 15:00:19;;;;;;;4.57;3.57;;;;;;;;;;4966279;28;20440;-89
2023/07/19 15:02:45;;;;;;;4.63;3.20;;;;;;;;;;4961603;28;20664;-88
2023/07/19 15:05:11;;;;;;;4.80;3.10;;;;;;;;;;4962635;28;20444;-89
2023/07/19 15:07:42;;;;;;;5.20;3.30;;;;;;;;;;4963952;28;20426;-89